sensor_id;sensor_type;location;lat;lon;timestamp;P1;durP1;ratioP1;P2;durP2;ratioP2
41861;SDS011;27537;57.134;-2.136;2024-02-23T00:01:09;2.15;;;1.20;;
41861;SDS011;27537;57.134;-2.136;2024-02-23T00:03:38;2.85;;;1.20;;
41861;SDS011;27537;57.134;-2.136;2024-02-23T00:06:05;5.25;;;1.50;;
41861;SDS011;27537;57.134;-2.136;2024-02-23T00:08:32;6.75;;;1.92;;
41861;SDS011;27537;57.134;-2.136;2024-02-23T00:10:59;5.60;;;1.70;;
41861;SDS011;27537;57.134;-2.136;2024-02-23T00:13:26;4.32;;;1.60;;
41861;SDS011;27537;57.134;-2.136;2024-02-23T00:15:53;3.53;;;1.40;;
41861;SDS011;27537;57.134;-2.136;2024-02-23T00:18:19;4.47;;;1.45;;
41861;SDS011;27537;57.134;-2.136;2024-02-23T00:20:47;2.60;;;1.23;;
41861;SDS011;27537;57.134;-2.136;2024-02-23T00:23:13;3.72;;;1.40;;
41861;SDS011;27537;57.134;-2.136;2024-02-23T00:25:41;2.72;;;1.33;;
41861;SDS011;27537;57.134;-2.136;2024-02-23T00:28:08;2.63;;;1.30;;
41861;SDS011;27537;57.134;-2.136;2024-02-23T00:30:35;3.95;;;1.25;;
41861;SDS011;27537;57.134;-2.136;2024-02-23T00:33:02;2.42;;;1.25;;
41861;SDS011;27537;57.134;-2.136;2024-02-23T00:35:29;3.90;;;1.40;;
41861;SDS011;27537;57.134;-2.136;2024-02-23T00:37:56;2.45;;;1.17;;
41861;SDS011;27537;57.134;-2.136;2024-02-23T00:40:23;2.88;;;1.33;;
41861;SDS011;27537;57.134;-2.136;2024-02-23T00:42:50;3.03;;;1.20;;
41861;SDS011;27537;57.134;-2.136;2024-02-23T00:45:17;2.00;;;1.20;;
41861;SDS011;27537;57.134;-2.136;2024-02-23T00:47:43;2.60;;;1.20;;
41861;SDS011;27537;57.134;-2.136;2024-02-23T00:50:12;1.98;;;1.13;;
41861;SDS011;27537;57.134;-2.136;2024-02-23T00:52:42;2.17;;;1.20;;
41861;SDS011;27537;57.134;-2.136;2024-02-23T00:55:09;1.30;;;1.10;;
41861;SDS011;27537;57.134;-2.136;2024-02-23T00:57:36;3.00;;;1.30;;
41861;SDS011;27537;57.134;-2.136;2024-02-23T01:00:05;4.93;;;1.20;;
41861;SDS011;27537;57.134;-2.136;2024-02-23T01:02:32;1.88;;;1.10;;
41861;SDS011;27537;57.134;-2.136;2024-02-23T01:04:59;1.75;;;1.02;;
41861;SDS011;27537;57.134;-2.136;2024-02-23T01:07:26;2.33;;;1.20;;
41861;SDS011;27537;57.134;-2.136;2024-02-23T01:09:54;2.40;;;1.30;;
41861;SDS011;27537;57.134;-2.136;2024-02-23T01:12:21;2.35;;;1.20;;
41861;SDS011;27537;57.134;-2.136;2024-02-23T01:14:48;1.38;;;1.10;;
41861;SDS011;27537;57.134;-2.136;2024-02-23T01:17:15;1.90;;;1.02;;
41861;SDS011;27537;57.134;-2.136;2024-02-23T01:19:42;1.65;;;1.00;;
41861;SDS011;27537;57.134;-2.136;2024-02-23T01:22:09;4.50;;;1.27;;
41861;SDS011;27537;57.134;-2.136;2024-02-23T01:24:37;1.55;;;1.10;;
41861;SDS011;27537;57.134;-2.136;2024-02-23T01:27:03;1.08;;;0.98;;
41861;SDS011;27537;57.134;-2.136;2024-02-23T01:29:30;2.10;;;1.10;;
41861;SDS011;27537;57.134;-2.136;2024-02-23T01:31:57;1.40;;;1.00;;
41861;SDS011;27537;57.134;-2.136;2024-02-23T01:34:25;1.92;;;1.10;;
41861;SDS011;27537;57.134;-2.136;2024-02-23T01:36:52;1.85;;;1.20;;
41861;SDS011;27537;57.134;-2.136;2024-02-23T01:39:18;5.28;;;1.48;;
41861;SDS011;27537;57.134;-2.136;2024-02-23T01:41:45;1.50;;;0.98;;
41861;SDS011;27537;57.134;-2.136;2024-02-23T01:44:13;2.53;;;1.10;;
41861;SDS011;27537;57.134;-2.136;2024-02-23T01:46:44;1.75;;;1.02;;
41861;SDS011;27537;57.134;-2.136;2024-02-23T01:49:11;3.15;;;1.20;;
41861;SDS011;27537;57.134;-2.136;2024-02-23T01:51:38;1.63;;;1.00;;
41861;SDS011;27537;57.134;-2.136;2024-02-23T01:54:06;1.65;;;1.02;;
41861;SDS011;27537;57.134;-2.136;2024-02-23T01:56:33;1.23;;;1.10;;
41861;SDS011;27537;57.134;-2.136;2024-02-23T01:59:03;2.08;;;1.10;;
41861;SDS011;27537;57.134;-2.136;2024-02-23T02:01:30;2.03;;;1.20;;
41861;SDS011;27537;57.134;-2.136;2024-02-23T02:03:58;2.53;;;1.10;;
41861;SDS011;27537;57.134;-2.136;2024-02-23T02:06:25;1.58;;;1.02;;
41861;SDS011;27537;57.134;-2.136;2024-02-23T02:08:52;1.83;;;1.00;;
41861;SDS011;27537;57.134;-2.136;2024-02-23T02:11:19;2.28;;;1.10;;
41861;SDS011;27537;57.134;-2.136;2024-02-23T02:13:46;2.15;;;1.10;;
41861;SDS011;27537;57.134;-2.136;2024-02-23T02:16:13;2.00;;;1.10;;
41861;SDS011;27537;57.134;-2.136;2024-02-23T02:18:40;1.70;;;1.00;;
41861;SDS011;27537;57.134;-2.136;2024-02-23T02:21:06;1.35;;;1.05;;
41861;SDS011;27537;57.134;-2.136;2024-02-23T02:23:33;2.22;;;1.35;;
41861;SDS011;27537;57.134;-2.136;2024-02-23T02:26:00;3.10;;;1.23;;
41861;SDS011;27537;57.134;-2.136;2024-02-23T02:28:26;1.67;;;1.10;;
41861;SDS011;27537;57.134;-2.136;2024-02-23T02:30:53;1.95;;;1.10;;
41861;SDS011;27537;57.134;-2.136;2024-02-23T02:33:20;1.30;;;1.00;;
41861;SDS011;27537;57.134;-2.136;2024-02-23T02:35:48;2.20;;;1.20;;
41861;SDS011;27537;57.134;-2.136;2024-02-23T02:38:16;2.50;;;1.13;;
41861;SDS011;27537;57.134;-2.136;2024-02-23T02:40:43;2.05;;;1.23;;
41861;SDS011;27537;57.134;-2.136;2024-02-23T02:43:10;1.90;;;1.08;;
41861;SDS011;27537;57.134;-2.136;2024-02-23T02:45:37;1.70;;;1.00;;
41861;SDS011;27537;57.134;-2.136;2024-02-23T02:48:04;2.55;;;1.10;;
41861;SDS011;27537;57.134;-2.136;2024-02-23T02:50:31;2.45;;;1.17;;
41861;SDS011;27537;57.134;-2.136;2024-02-23T02:52:58;1.98;;;1.00;;
41861;SDS011;27537;57.134;-2.136;2024-02-23T02:55:25;1.50;;;1.00;;
41861;SDS011;27537;57.134;-2.136;2024-02-23T02:57:52;1.52;;;1.00;;
41861;SDS011;27537;57.134;-2.136;2024-02-23T03:00:18;3.22;;;1.05;;
41861;SDS011;27537;57.134;-2.136;2024-02-23T03:02:45;7.07;;;1.20;;
41861;SDS011;27537;57.134;-2.136;2024-02-23T03:05:12;1.40;;;1.00;;
41861;SDS011;27537;57.134;-2.136;2024-02-23T03:07:38;1.25;;;1.00;;
41861;SDS011;27537;57.134;-2.136;2024-02-23T03:10:05;1.92;;;0.98;;
41861;SDS011;27537;57.134;-2.136;2024-02-23T03:12:33;3.58;;;1.10;;
41861;SDS011;27537;57.134;-2.136;2024-02-23T03:14:59;2.35;;;1.15;;
41861;SDS011;27537;57.134;-2.136;2024-02-23T03:17:26;2.22;;;1.05;;
41861;SDS011;27537;57.134;-2.136;2024-02-23T03:19:53;1.20;;;1.02;;
41861;SDS011;27537;57.134;-2.136;2024-02-23T03:22:20;1.45;;;1.00;;
41861;SDS011;27537;57.134;-2.136;2024-02-23T03:24:47;1.10;;;1.00;;
41861;SDS011;27537;57.134;-2.136;2024-02-23T03:27:13;2.10;;;1.05;;
41861;SDS011;27537;57.134;-2.136;2024-02-23T03:29:41;2.10;;;1.10;;
41861;SDS011;27537;57.134;-2.136;2024-02-23T03:32:07;1.50;;;1.00;;
41861;SDS011;27537;57.134;-2.136;2024-02-23T03:34:35;1.80;;;1.02;;
41861;SDS011;27537;57.134;-2.136;2024-02-23T03:37:02;1.40;;;1.00;;
41861;SDS011;27537;57.134;-2.136;2024-02-23T03:39:29;1.50;;;1.10;;
41861;SDS011;27537;57.134;-2.136;2024-02-23T03:41:56;4.05;;;1.30;;
41861;SDS011;27537;57.134;-2.136;2024-02-23T03:44:22;3.00;;;1.20;;
41861;SDS011;27537;57.134;-2.136;2024-02-23T03:46:49;1.90;;;1.10;;
41861;SDS011;27537;57.134;-2.136;2024-02-23T03:49:16;3.05;;;1.48;;
41861;SDS011;27537;57.134;-2.136;2024-02-23T03:51:43;2.33;;;1.00;;
41861;SDS011;27537;57.134;-2.136;2024-02-23T03:54:10;1.40;;;1.10;;
41861;SDS011;27537;57.134;-2.136;2024-02-23T03:56:38;2.10;;;1.10;;
41861;SDS011;27537;57.134;-2.136;2024-02-23T03:59:08;2.08;;;1.00;;
41861;SDS011;27537;57.134;-2.136;2024-02-23T04:01:36;2.85;;;1.10;;
41861;SDS011;27537;57.134;-2.136;2024-02-23T04:04:04;3.08;;;1.20;;
41861;SDS011;27537;57.134;-2.136;2024-02-23T04:06:31;2.10;;;1.23;;
41861;SDS011;27537;57.134;-2.136;2024-02-23T04:08:59;1.85;;;1.10;;
41861;SDS011;27537;57.134;-2.136;2024-02-23T04:11:26;2.78;;;1.20;;
41861;SDS011;27537;57.134;-2.136;2024-02-23T04:13:56;1.40;;;1.00;;
41861;SDS011;27537;57.134;-2.136;2024-02-23T04:16:23;2.45;;;1.30;;
41861;SDS011;27537;57.134;-2.136;2024-02-23T04:18:54;1.48;;;1.02;;
41861;SDS011;27537;57.134;-2.136;2024-02-23T04:21:21;2.20;;;1.10;;
41861;SDS011;27537;57.134;-2.136;2024-02-23T04:23:47;1.40;;;1.10;;
41861;SDS011;27537;57.134;-2.136;2024-02-23T04:26:14;3.85;;;1.10;;
41861;SDS011;27537;57.134;-2.136;2024-02-23T04:28:41;1.90;;;1.05;;
41861;SDS011;27537;57.134;-2.136;2024-02-23T04:31:09;1.73;;;1.08;;
41861;SDS011;27537;57.134;-2.136;2024-02-23T04:33:36;1.30;;;0.93;;
41861;SDS011;27537;57.134;-2.136;2024-02-23T04:36:04;1.33;;;1.02;;
41861;SDS011;27537;57.134;-2.136;2024-02-23T04:38:31;2.00;;;1.02;;
41861;SDS011;27537;57.134;-2.136;2024-02-23T04:41:01;2.70;;;1.08;;
41861;SDS011;27537;57.134;-2.136;2024-02-23T04:43:29;1.52;;;1.00;;
41861;SDS011;27537;57.134;-2.136;2024-02-23T04:45:56;2.08;;;1.20;;
41861;SDS011;27537;57.134;-2.136;2024-02-23T04:48:25;1.77;;;1.10;;
41861;SDS011;27537;57.134;-2.136;2024-02-23T04:50:52;2.03;;;1.10;;
41861;SDS011;27537;57.134;-2.136;2024-02-23T04:53:18;1.13;;;1.02;;
41861;SDS011;27537;57.134;-2.136;2024-02-23T04:55:46;1.50;;;1.00;;
41861;SDS011;27537;57.134;-2.136;2024-02-23T04:58:12;3.63;;;1.13;;
41861;SDS011;27537;57.134;-2.136;2024-02-23T05:00:39;1.58;;;1.10;;
41861;SDS011;27537;57.134;-2.136;2024-02-23T05:03:06;2.83;;;1.10;;
41861;SDS011;27537;57.134;-2.136;2024-02-23T05:05:37;1.58;;;0.90;;
41861;SDS011;27537;57.134;-2.136;2024-02-23T05:08:04;1.55;;;1.00;;
41861;SDS011;27537;57.134;-2.136;2024-02-23T05:10:31;1.20;;;1.10;;
41861;SDS011;27537;57.134;-2.136;2024-02-23T05:12:58;1.63;;;1.10;;
41861;SDS011;27537;57.134;-2.136;2024-02-23T05:15:25;1.75;;;1.00;;
41861;SDS011;27537;57.134;-2.136;2024-02-23T05:17:51;1.50;;;1.05;;
41861;SDS011;27537;57.134;-2.136;2024-02-23T05:20:18;2.35;;;1.10;;
41861;SDS011;27537;57.134;-2.136;2024-02-23T05:22:45;1.10;;;1.00;;
41861;SDS011;27537;57.134;-2.136;2024-02-23T05:25:12;1.98;;;1.15;;
41861;SDS011;27537;57.134;-2.136;2024-02-23T05:27:38;1.05;;;0.95;;
41861;SDS011;27537;57.134;-2.136;2024-02-23T05:30:05;1.02;;;0.90;;
41861;SDS011;27537;57.134;-2.136;2024-02-23T05:32:33;1.73;;;1.10;;
41861;SDS011;27537;57.134;-2.136;2024-02-23T05:35:00;1.52;;;1.10;;
41861;SDS011;27537;57.134;-2.136;2024-02-23T05:37:29;1.45;;;1.10;;
41861;SDS011;27537;57.134;-2.136;2024-02-23T05:39:56;1.63;;;1.00;;
41861;SDS011;27537;57.134;-2.136;2024-02-23T05:42:23;1.65;;;1.10;;
41861;SDS011;27537;57.134;-2.136;2024-02-23T05:44:50;1.77;;;1.00;;
41861;SDS011;27537;57.134;-2.136;2024-02-23T05:47:17;2.92;;;1.20;;
41861;SDS011;27537;57.134;-2.136;2024-02-23T05:49:44;1.83;;;1.10;;
41861;SDS011;27537;57.134;-2.136;2024-02-23T05:52:10;2.55;;;1.17;;
41861;SDS011;27537;57.134;-2.136;2024-02-23T05:54:37;2.47;;;1.40;;
41861;SDS011;27537;57.134;-2.136;2024-02-23T05:57:04;3.10;;;1.50;;
41861;SDS011;27537;57.134;-2.136;2024-02-23T05:59:31;2.85;;;1.23;;
41861;SDS011;27537;57.134;-2.136;2024-02-23T06:01:58;2.22;;;1.20;;
41861;SDS011;27537;57.134;-2.136;2024-02-23T06:04:25;4.15;;;1.30;;
41861;SDS011;27537;57.134;-2.136;2024-02-23T06:06:51;2.25;;;1.10;;
41861;SDS011;27537;57.134;-2.136;2024-02-23T06:09:18;2.55;;;1.20;;
41861;SDS011;27537;57.134;-2.136;2024-02-23T06:11:45;2.42;;;1.30;;
41861;SDS011;27537;57.134;-2.136;2024-02-23T06:14:13;3.15;;;1.45;;
41861;SDS011;27537;57.134;-2.136;2024-02-23T06:16:40;2.33;;;1.13;;
41861;SDS011;27537;57.134;-2.136;2024-02-23T06:19:07;4.28;;;1.60;;
41861;SDS011;27537;57.134;-2.136;2024-02-23T06:21:34;3.22;;;1.40;;
41861;SDS011;27537;57.134;-2.136;2024-02-23T06:24:01;3.83;;;1.40;;
41861;SDS011;27537;57.134;-2.136;2024-02-23T06:26:29;2.10;;;1.30;;
41861;SDS011;27537;57.134;-2.136;2024-02-23T06:28:56;2.75;;;1.35;;
41861;SDS011;27537;57.134;-2.136;2024-02-23T06:31:22;2.70;;;1.40;;
41861;SDS011;27537;57.134;-2.136;2024-02-23T06:33:49;2.13;;;1.35;;
41861;SDS011;27537;57.134;-2.136;2024-02-23T06:36:18;3.95;;;1.58;;
41861;SDS011;27537;57.134;-2.136;2024-02-23T06:38:45;3.45;;;1.58;;
41861;SDS011;27537;57.134;-2.136;2024-02-23T06:41:11;4.40;;;1.50;;
41861;SDS011;27537;57.134;-2.136;2024-02-23T06:43:38;2.85;;;1.50;;
41861;SDS011;27537;57.134;-2.136;2024-02-23T06:46:09;3.60;;;1.50;;
41861;SDS011;27537;57.134;-2.136;2024-02-23T06:48:36;4.03;;;1.60;;
41861;SDS011;27537;57.134;-2.136;2024-02-23T06:51:04;2.97;;;1.40;;
41861;SDS011;27537;57.134;-2.136;2024-02-23T06:53:33;3.25;;;1.52;;
41861;SDS011;27537;57.134;-2.136;2024-02-23T06:56:00;5.25;;;1.50;;
41861;SDS011;27537;57.134;-2.136;2024-02-23T06:58:27;6.28;;;1.90;;
41861;SDS011;27537;57.134;-2.136;2024-02-23T07:00:54;5.50;;;2.08;;
41861;SDS011;27537;57.134;-2.136;2024-02-23T07:03:21;7.30;;;2.10;;
41861;SDS011;27537;57.134;-2.136;2024-02-23T07:05:48;5.95;;;1.80;;
41861;SDS011;27537;57.134;-2.136;2024-02-23T07:08:16;3.83;;;1.80;;
41861;SDS011;27537;57.134;-2.136;2024-02-23T07:10:43;4.82;;;1.75;;
41861;SDS011;27537;57.134;-2.136;2024-02-23T07:13:10;6.15;;;1.98;;
41861;SDS011;27537;57.134;-2.136;2024-02-23T07:15:37;3.58;;;1.50;;
41861;SDS011;27537;57.134;-2.136;2024-02-23T07:18:04;3.92;;;1.70;;
41861;SDS011;27537;57.134;-2.136;2024-02-23T07:20:31;5.78;;;1.77;;
41861;SDS011;27537;57.134;-2.136;2024-02-23T07:22:58;4.07;;;1.60;;
41861;SDS011;27537;57.134;-2.136;2024-02-23T07:25:24;3.10;;;1.50;;
41861;SDS011;27537;57.134;-2.136;2024-02-23T07:27:52;3.65;;;1.58;;
41861;SDS011;27537;57.134;-2.136;2024-02-23T07:30:19;3.90;;;1.50;;
41861;SDS011;27537;57.134;-2.136;2024-02-23T07:32:46;3.33;;;1.50;;
41861;SDS011;27537;57.134;-2.136;2024-02-23T07:35:18;4.68;;;1.63;;
41861;SDS011;27537;57.134;-2.136;2024-02-23T07:37:45;7.55;;;1.75;;
41861;SDS011;27537;57.134;-2.136;2024-02-23T07:40:12;5.40;;;1.65;;
41861;SDS011;27537;57.134;-2.136;2024-02-23T07:42:43;5.70;;;1.83;;
41861;SDS011;27537;57.134;-2.136;2024-02-23T07:45:10;4.60;;;1.88;;
41861;SDS011;27537;57.134;-2.136;2024-02-23T07:47:37;4.85;;;2.05;;
41861;SDS011;27537;57.134;-2.136;2024-02-23T07:50:04;4.80;;;1.63;;
41861;SDS011;27537;57.134;-2.136;2024-02-23T07:52:31;3.33;;;1.52;;
41861;SDS011;27537;57.134;-2.136;2024-02-23T07:54:58;5.65;;;1.70;;
41861;SDS011;27537;57.134;-2.136;2024-02-23T07:57:26;18.52;;;16.83;;
41861;SDS011;27537;57.134;-2.136;2024-02-23T07:59:53;8.32;;;4.88;;
41861;SDS011;27537;57.134;-2.136;2024-02-23T08:02:20;8.57;;;4.80;;
41861;SDS011;27537;57.134;-2.136;2024-02-23T08:04:48;9.35;;;3.95;;
41861;SDS011;27537;57.134;-2.136;2024-02-23T08:07:17;7.07;;;3.30;;
41861;SDS011;27537;57.134;-2.136;2024-02-23T08:09:43;7.22;;;3.28;;
41861;SDS011;27537;57.134;-2.136;2024-02-23T08:12:11;6.93;;;2.63;;
41861;SDS011;27537;57.134;-2.136;2024-02-23T08:14:40;5.07;;;2.10;;
41861;SDS011;27537;57.134;-2.136;2024-02-23T08:17:10;5.82;;;2.33;;
41861;SDS011;27537;57.134;-2.136;2024-02-23T08:19:39;4.43;;;1.77;;
41861;SDS011;27537;57.134;-2.136;2024-02-23T08:22:06;6.30;;;2.58;;
41861;SDS011;27537;57.134;-2.136;2024-02-23T08:24:33;5.10;;;1.90;;
41861;SDS011;27537;57.134;-2.136;2024-02-23T08:27:00;4.53;;;1.60;;
41861;SDS011;27537;57.134;-2.136;2024-02-23T08:29:26;3.00;;;1.40;;
41861;SDS011;27537;57.134;-2.136;2024-02-23T08:31:53;6.35;;;1.50;;
41861;SDS011;27537;57.134;-2.136;2024-02-23T08:34:20;4.03;;;1.25;;
41861;SDS011;27537;57.134;-2.136;2024-02-23T08:36:47;2.22;;;1.10;;
41861;SDS011;27537;57.134;-2.136;2024-02-23T08:39:13;2.45;;;1.10;;
41861;SDS011;27537;57.134;-2.136;2024-02-23T08:41:40;2.05;;;1.00;;
41861;SDS011;27537;57.134;-2.136;2024-02-23T08:44:07;2.08;;;1.00;;
41861;SDS011;27537;57.134;-2.136;2024-02-23T08:46:34;1.45;;;0.90;;
41861;SDS011;27537;57.134;-2.136;2024-02-23T08:49:00;1.65;;;0.90;;
41861;SDS011;27537;57.134;-2.136;2024-02-23T08:51:27;2.00;;;1.00;;
41861;SDS011;27537;57.134;-2.136;2024-02-23T08:53:54;1.52;;;1.00;;
41861;SDS011;27537;57.134;-2.136;2024-02-23T08:56:26;2.00;;;1.10;;
41861;SDS011;27537;57.134;-2.136;2024-02-23T08:58:53;1.90;;;1.00;;
41861;SDS011;27537;57.134;-2.136;2024-02-23T09:01:19;2.15;;;1.20;;
41861;SDS011;27537;57.134;-2.136;2024-02-23T09:03:46;1.80;;;0.90;;
41861;SDS011;27537;57.134;-2.136;2024-02-23T09:06:13;2.00;;;1.23;;
41861;SDS011;27537;57.134;-2.136;2024-02-23T09:08:40;1.48;;;0.98;;
41861;SDS011;27537;57.134;-2.136;2024-02-23T09:11:07;1.75;;;0.98;;
41861;SDS011;27537;57.134;-2.136;2024-02-23T09:13:34;2.35;;;1.00;;
41861;SDS011;27537;57.134;-2.136;2024-02-23T09:16:01;1.27;;;0.98;;
41861;SDS011;27537;57.134;-2.136;2024-02-23T09:18:29;2.35;;;0.90;;
41861;SDS011;27537;57.134;-2.136;2024-02-23T09:20:56;1.23;;;0.80;;
41861;SDS011;27537;57.134;-2.136;2024-02-23T09:23:23;1.73;;;0.95;;
41861;SDS011;27537;57.134;-2.136;2024-02-23T09:25:50;1.00;;;0.90;;
41861;SDS011;27537;57.134;-2.136;2024-02-23T09:28:16;1.45;;;0.80;;
41861;SDS011;27537;57.134;-2.136;2024-02-23T09:30:43;1.25;;;0.90;;
41861;SDS011;27537;57.134;-2.136;2024-02-23T09:33:10;1.05;;;0.90;;
41861;SDS011;27537;57.134;-2.136;2024-02-23T09:35:37;1.65;;;1.00;;
41861;SDS011;27537;57.134;-2.136;2024-02-23T09:38:03;5.63;;;1.70;;
41861;SDS011;27537;57.134;-2.136;2024-02-23T09:40:30;6.03;;;2.05;;
41861;SDS011;27537;57.134;-2.136;2024-02-23T09:42:57;7.28;;;2.47;;
41861;SDS011;27537;57.134;-2.136;2024-02-23T09:45:25;5.88;;;2.08;;
41861;SDS011;27537;57.134;-2.136;2024-02-23T09:47:53;6.40;;;2.15;;
41861;SDS011;27537;57.134;-2.136;2024-02-23T09:50:23;6.45;;;2.33;;
41861;SDS011;27537;57.134;-2.136;2024-02-23T09:52:50;5.53;;;1.90;;
41861;SDS011;27537;57.134;-2.136;2024-02-23T09:55:17;6.60;;;2.40;;
41861;SDS011;27537;57.134;-2.136;2024-02-23T09:57:48;6.07;;;3.45;;
41861;SDS011;27537;57.134;-2.136;2024-02-23T10:00:17;5.45;;;2.38;;
41861;SDS011;27537;57.134;-2.136;2024-02-23T10:02:44;7.72;;;2.30;;
41861;SDS011;27537;57.134;-2.136;2024-02-23T10:05:11;17.50;;;8.38;;
41861;SDS011;27537;57.134;-2.136;2024-02-23T10:07:40;18.50;;;8.20;;
41861;SDS011;27537;57.134;-2.136;2024-02-23T10:10:07;16.05;;;7.63;;
41861;SDS011;27537;57.134;-2.136;2024-02-23T10:12:35;18.40;;;9.40;;
41861;SDS011;27537;57.134;-2.136;2024-02-23T10:15:02;18.20;;;7.95;;
41861;SDS011;27537;57.134;-2.136;2024-02-23T10:17:32;11.85;;;5.50;;
41861;SDS011;27537;57.134;-2.136;2024-02-23T10:20:02;12.35;;;5.45;;
41861;SDS011;27537;57.134;-2.136;2024-02-23T10:22:33;8.98;;;3.80;;
41861;SDS011;27537;57.134;-2.136;2024-02-23T10:25:01;9.00;;;3.25;;
41861;SDS011;27537;57.134;-2.136;2024-02-23T10:27:28;8.43;;;3.15;;
41861;SDS011;27537;57.134;-2.136;2024-02-23T10:29:55;8.38;;;3.75;;
41861;SDS011;27537;57.134;-2.136;2024-02-23T10:32:22;8.10;;;2.72;;
41861;SDS011;27537;57.134;-2.136;2024-02-23T10:34:52;9.32;;;3.72;;
41861;SDS011;27537;57.134;-2.136;2024-02-23T10:37:25;8.90;;;2.97;;
41861;SDS011;27537;57.134;-2.136;2024-02-23T10:39:53;8.18;;;2.78;;
41861;SDS011;27537;57.134;-2.136;2024-02-23T10:42:24;9.88;;;2.00;;
41861;SDS011;27537;57.134;-2.136;2024-02-23T10:44:57;4.90;;;1.75;;
41861;SDS011;27537;57.134;-2.136;2024-02-23T10:47:28;4.45;;;1.88;;
41861;SDS011;27537;57.134;-2.136;2024-02-23T10:49:58;3.17;;;1.30;;
41861;SDS011;27537;57.134;-2.136;2024-02-23T10:52:27;4.10;;;1.50;;
41861;SDS011;27537;57.134;-2.136;2024-02-23T10:54:55;3.08;;;1.35;;
41861;SDS011;27537;57.134;-2.136;2024-02-23T10:57:26;3.70;;;1.40;;
41861;SDS011;27537;57.134;-2.136;2024-02-23T10:59:54;2.63;;;1.30;;
41861;SDS011;27537;57.134;-2.136;2024-02-23T11:02:20;6.20;;;1.77;;
41861;SDS011;27537;57.134;-2.136;2024-02-23T11:04:50;3.63;;;1.48;;
41861;SDS011;27537;57.134;-2.136;2024-02-23T11:07:20;4.93;;;1.58;;
41861;SDS011;27537;57.134;-2.136;2024-02-23T11:10:21;4.05;;;1.40;;
41861;SDS011;27537;57.134;-2.136;2024-02-23T11:12:41;3.05;;;1.10;;
41861;SDS011;27537;57.134;-2.136;2024-02-23T11:15:07;2.78;;;1.17;;
41861;SDS011;27537;57.134;-2.136;2024-02-23T11:17:36;3.30;;;1.48;;
41861;SDS011;27537;57.134;-2.136;2024-02-23T11:20:05;2.83;;;1.00;;
41861;SDS011;27537;57.134;-2.136;2024-02-23T11:22:34;1.52;;;0.90;;
41861;SDS011;27537;57.134;-2.136;2024-02-23T11:27:35;2.78;;;1.00;;
41861;SDS011;27537;57.134;-2.136;2024-02-23T11:30:04;2.20;;;1.00;;
41861;SDS011;27537;57.134;-2.136;2024-02-23T11:32:39;1.48;;;0.88;;
41861;SDS011;27537;57.134;-2.136;2024-02-23T11:35:08;2.67;;;1.00;;
41861;SDS011;27537;57.134;-2.136;2024-02-23T11:37:56;2.05;;;0.90;;
41861;SDS011;27537;57.134;-2.136;2024-02-23T11:40:26;2.78;;;0.90;;
41861;SDS011;27537;57.134;-2.136;2024-02-23T11:42:56;7.13;;;1.00;;
41861;SDS011;27537;57.134;-2.136;2024-02-23T11:45:24;1.02;;;0.80;;
41861;SDS011;27537;57.134;-2.136;2024-02-23T11:47:51;2.75;;;0.95;;
41861;SDS011;27537;57.134;-2.136;2024-02-23T11:50:19;1.38;;;0.93;;
41861;SDS011;27537;57.134;-2.136;2024-02-23T11:52:48;1.73;;;0.90;;
41861;SDS011;27537;57.134;-2.136;2024-02-23T11:55:19;2.95;;;0.98;;
41861;SDS011;27537;57.134;-2.136;2024-02-23T11:57:50;1.13;;;0.80;;
41861;SDS011;27537;57.134;-2.136;2024-02-23T12:00:30;1.92;;;0.90;;
41861;SDS011;27537;57.134;-2.136;2024-02-23T12:02:57;2.28;;;0.90;;
41861;SDS011;27537;57.134;-2.136;2024-02-23T12:05:24;1.45;;;0.85;;
41861;SDS011;27537;57.134;-2.136;2024-02-23T12:07:50;1.98;;;1.00;;
41861;SDS011;27537;57.134;-2.136;2024-02-23T12:10:20;3.33;;;1.20;;
41861;SDS011;27537;57.134;-2.136;2024-02-23T12:12:53;5.78;;;1.95;;
41861;SDS011;27537;57.134;-2.136;2024-02-23T12:15:20;3.20;;;1.08;;
41861;SDS011;27537;57.134;-2.136;2024-02-23T12:17:47;2.22;;;1.05;;
41861;SDS011;27537;57.134;-2.136;2024-02-23T12:20:15;4.15;;;1.20;;
41861;SDS011;27537;57.134;-2.136;2024-02-23T12:22:42;3.08;;;1.00;;
41861;SDS011;27537;57.134;-2.136;2024-02-23T12:25:09;1.50;;;0.90;;
41861;SDS011;27537;57.134;-2.136;2024-02-23T12:27:38;3.28;;;1.35;;
41861;SDS011;27537;57.134;-2.136;2024-02-23T12:30:04;2.00;;;0.93;;
41861;SDS011;27537;57.134;-2.136;2024-02-23T12:32:31;3.08;;;1.10;;
41861;SDS011;27537;57.134;-2.136;2024-02-23T12:34:58;3.67;;;1.27;;
41861;SDS011;27537;57.134;-2.136;2024-02-23T12:37:25;1.42;;;1.00;;
41861;SDS011;27537;57.134;-2.136;2024-02-23T12:39:52;2.30;;;1.02;;
41861;SDS011;27537;57.134;-2.136;2024-02-23T12:42:19;2.58;;;1.10;;
41861;SDS011;27537;57.134;-2.136;2024-02-23T12:44:46;4.43;;;0.93;;
41861;SDS011;27537;57.134;-2.136;2024-02-23T12:47:13;3.65;;;0.98;;
41861;SDS011;27537;57.134;-2.136;2024-02-23T12:49:40;2.33;;;1.10;;
41861;SDS011;27537;57.134;-2.136;2024-02-23T12:52:11;1.73;;;0.90;;
41861;SDS011;27537;57.134;-2.136;2024-02-23T12:54:38;1.98;;;1.00;;
41861;SDS011;27537;57.134;-2.136;2024-02-23T12:57:05;2.65;;;0.90;;
41861;SDS011;27537;57.134;-2.136;2024-02-23T12:59:32;1.33;;;0.90;;
41861;SDS011;27537;57.134;-2.136;2024-02-23T13:01:58;1.95;;;0.85;;
41861;SDS011;27537;57.134;-2.136;2024-02-23T13:04:25;1.08;;;0.70;;
41861;SDS011;27537;57.134;-2.136;2024-02-23T13:06:52;1.52;;;0.80;;
41861;SDS011;27537;57.134;-2.136;2024-02-23T13:09:20;2.42;;;0.80;;
41861;SDS011;27537;57.134;-2.136;2024-02-23T13:11:47;0.80;;;0.75;;
41861;SDS011;27537;57.134;-2.136;2024-02-23T13:14:14;1.08;;;0.80;;
41861;SDS011;27537;57.134;-2.136;2024-02-23T13:16:42;1.55;;;0.90;;
41861;SDS011;27537;57.134;-2.136;2024-02-23T13:19:09;1.17;;;0.90;;
41861;SDS011;27537;57.134;-2.136;2024-02-23T13:21:36;2.10;;;0.98;;
41861;SDS011;27537;57.134;-2.136;2024-02-23T13:24:03;2.00;;;0.90;;
41861;SDS011;27537;57.134;-2.136;2024-02-23T13:26:30;3.25;;;1.05;;
41861;SDS011;27537;57.134;-2.136;2024-02-23T13:28:57;1.42;;;0.80;;
41861;SDS011;27537;57.134;-2.136;2024-02-23T13:31:23;1.52;;;0.80;;
41861;SDS011;27537;57.134;-2.136;2024-02-23T13:33:50;1.08;;;0.80;;
41861;SDS011;27537;57.134;-2.136;2024-02-23T13:36:17;1.83;;;0.90;;
41861;SDS011;27537;57.134;-2.136;2024-02-23T13:38:44;1.23;;;0.80;;
41861;SDS011;27537;57.134;-2.136;2024-02-23T13:41:10;1.27;;;0.85;;
41861;SDS011;27537;57.134;-2.136;2024-02-23T13:43:38;1.45;;;0.88;;
41861;SDS011;27537;57.134;-2.136;2024-02-23T13:46:05;1.20;;;0.90;;
41861;SDS011;27537;57.134;-2.136;2024-02-23T13:48:32;1.75;;;0.90;;
41861;SDS011;27537;57.134;-2.136;2024-02-23T13:50:59;2.10;;;0.90;;
41861;SDS011;27537;57.134;-2.136;2024-02-23T13:53:30;0.90;;;0.80;;
41861;SDS011;27537;57.134;-2.136;2024-02-23T13:55:59;1.27;;;0.80;;
41861;SDS011;27537;57.134;-2.136;2024-02-23T13:58:29;3.60;;;1.02;;
41861;SDS011;27537;57.134;-2.136;2024-02-23T14:00:55;2.75;;;0.90;;
41861;SDS011;27537;57.134;-2.136;2024-02-23T14:03:22;3.15;;;1.10;;
41861;SDS011;27537;57.134;-2.136;2024-02-23T14:05:49;2.25;;;0.95;;
41861;SDS011;27537;57.134;-2.136;2024-02-23T14:08:17;1.58;;;0.90;;
41861;SDS011;27537;57.134;-2.136;2024-02-23T14:10:44;2.08;;;0.90;;
41861;SDS011;27537;57.134;-2.136;2024-02-23T14:13:12;2.28;;;0.90;;
41861;SDS011;27537;57.134;-2.136;2024-02-23T14:15:39;1.17;;;0.85;;
41861;SDS011;27537;57.134;-2.136;2024-02-23T14:18:06;1.40;;;0.90;;
41861;SDS011;27537;57.134;-2.136;2024-02-23T14:20:32;2.15;;;0.93;;
41861;SDS011;27537;57.134;-2.136;2024-02-23T14:22:59;2.17;;;0.90;;
41861;SDS011;27537;57.134;-2.136;2024-02-23T14:25:26;2.45;;;1.00;;
41861;SDS011;27537;57.134;-2.136;2024-02-23T14:27:53;1.90;;;0.95;;
41861;SDS011;27537;57.134;-2.136;2024-02-23T14:30:22;3.20;;;0.90;;
41861;SDS011;27537;57.134;-2.136;2024-02-23T14:32:48;2.72;;;0.98;;
41861;SDS011;27537;57.134;-2.136;2024-02-23T14:35:16;1.90;;;0.90;;
41861;SDS011;27537;57.134;-2.136;2024-02-23T14:37:42;2.83;;;0.70;;